Time;durP1;ratioP1;P1;durP2;ratioP2;P2;SDS_P1;SDS_P2;PMS_P1;PMS_P2;Temp;Humidity;BMP_temperature;BMP_pressure;BME280_temperature;BME280_humidity;BME280_pressure;Samples;Min_cycle;Max_cycle;Signal;HPM_P1;HPM_P2
2023/03/07 00:00:00;;;;;;;16.17;11.73;;;6.20;99.90;;;;;;4909820;29;20217;-84
2023/03/07 00:02:28;;;;;;;19.27;13.27;;;6.10;99.90;;;;;;4917138;29;20620;-88
2023/03/07 00:04:54;;;;;;;16.00;11.82;;;6.20;99.90;;;;;;4918224;29;20463;-83
2023/03/07 00:07:20;;;;;;;16.63;12.70;;;6.20;99.90;;;;;;4917981;29;20189;-84
2023/03/07 00:09:46;;;;;;;14.60;11.53;;;6.10;99.90;;;;;;4917970;29;20613;-84
2023/03/07 00:12:12;;;;;;;15.43;11.52;;;6.20;99.90;;;;;;4916739;29;20206;-84
2023/03/07 00:14:38;;;;;;;17.50;11.70;;;6.30;99.90;;;;;;4917683;29;20183;-84
2023/03/07 00:17:04;;;;;;;14.13;9.77;;;6.30;99.90;;;;;;4916803;29;20403;-84
2023/03/07 00:19:30;;;;;;;14.07;11.30;;;6.40;99.90;;;;;;4918100;29;20184;-84
2023/03/07 00:21:55;;;;;;;14.73;11.73;;;6.40;99.90;;;;;;4916496;29;20187;-84
2023/03/07 00:24:21;;;;;;;14.67;11.00;;;6.40;99.90;;;;;;4917638;29;20177;-84
2023/03/07 00:26:47;;;;;;;13.60;10.83;;;6.30;99.90;;;;;;4917040;29;20230;-84
2023/03/07 00:29:12;;;;;;;14.33;10.47;;;6.30;99.90;;;;;;4917580;29;20179;-84
2023/03/07 00:31:38;;;;;;;14.47;11.00;;;6.40;99.90;;;;;;4918404;29;20234;-84
2023/03/07 00:34:04;;;;;;;12.13;9.70;;;6.40;99.90;;;;;;4918198;29;20179;-86
2023/03/07 00:36:30;;;;;;;13.13;9.83;;;6.40;99.90;;;;;;4917701;29;20513;-85
2023/03/07 00:38:59;;;;;;;10.68;9.20;;;6.40;99.90;;;;;;4917737;29;20179;-84
2023/03/07 00:41:27;;;;;;;11.30;9.23;;;6.50;99.90;;;;;;4916580;29;20195;-84
2023/03/07 00:43:54;;;;;;;13.98;10.02;;;6.40;99.90;;;;;;4918040;29;20224;-85
2023/03/07 00:46:22;;;;;;;13.38;9.82;;;6.40;99.90;;;;;;4914705;29;20267;-84
2023/03/07 00:48:47;;;;;;;10.48;9.05;;;6.60;99.90;;;;;;4926875;29;20182;-84
2023/03/07 00:51:15;;;;;;;12.00;9.97;;;6.60;99.90;;;;;;4917279;29;20225;-84
2023/03/07 00:53:42;;;;;;;11.40;8.40;;;6.70;99.90;;;;;;4917295;29;20187;-82
2023/03/07 00:56:16;;;;;;;12.33;9.77;;;6.70;99.90;;;;;;4912151;29;20909;-82
2023/03/07 00:58:42;;;;;;;11.07;9.43;;;6.80;99.90;;;;;;4900038;29;20394;-83
2023/03/07 01:01:10;;;;;;;10.63;9.47;;;6.80;99.90;;;;;;4916182;29;20435;-82
2023/03/07 01:03:37;;;;;;;11.47;9.37;;;6.80;99.90;;;;;;4916814;29;20431;-82
2023/03/07 01:06:08;;;;;;;14.10;11.27;;;6.70;99.90;;;;;;4917743;29;20915;-82
2023/03/07 01:08:35;;;;;;;10.90;9.17;;;6.70;99.90;;;;;;4916804;29;20175;-83
2023/03/07 01:11:03;;;;;;;11.50;9.33;;;6.80;99.90;;;;;;4916515;29;20491;-83
2023/03/07 01:13:30;;;;;;;13.60;9.77;;;6.70;99.90;;;;;;4916792;29;20467;-83
2023/03/07 01:16:16;;;;;;;10.60;9.20;;;6.70;99.90;;;;;;4916561;29;20439;-83
2023/03/07 01:18:43;;;;;;;11.90;9.23;;;6.70;99.90;;;;;;4899612;29;20406;-83
2023/03/07 01:21:22;;;;;;;10.97;9.57;;;6.70;99.90;;;;;;4915298;29;20399;-84
2023/03/07 01:23:48;;;;;;;9.38;8.30;;;6.80;99.90;;;;;;4916084;29;20578;-83
2023/03/07 01:26:17;;;;;;;8.70;7.63;;;6.80;99.90;;;;;;4916614;29;20172;-83
2023/03/07 01:28:42;;;;;;;9.20;7.43;;;6.90;99.90;;;;;;4897906;29;20937;-83
2023/03/07 01:31:08;;;;;;;8.63;7.57;;;6.80;99.90;;;;;;4916156;29;20514;-83
2023/03/07 01:33:34;;;;;;;8.40;7.57;;;6.80;99.90;;;;;;4914725;29;20219;-84
2023/03/07 01:36:00;;;;;;;7.37;6.60;;;6.70;99.90;;;;;;4915694;29;20191;-83
2023/03/07 01:38:27;;;;;;;8.90;8.00;;;6.80;99.90;;;;;;4916726;29;20206;-83
2023/03/07 01:40:52;;;;;;;8.33;7.43;;;6.80;99.90;;;;;;4915156;29;20191;-84
2023/03/07 01:43:22;;;;;;;8.20;7.50;;;6.80;99.90;;;;;;4916528;29;20452;-84
2023/03/07 01:45:48;;;;;;;8.77;7.87;;;6.80;99.90;;;;;;4899311;29;20529;-83
2023/03/07 01:48:14;;;;;;;8.57;7.20;;;6.90;99.90;;;;;;4916918;29;20418;-83
2023/03/07 01:50:41;;;;;;;8.53;7.73;;;6.90;99.90;;;;;;4916780;29;20183;-84
2023/03/07 01:53:08;;;;;;;8.30;7.50;;;6.90;99.90;;;;;;4916796;29;20458;-84
2023/03/07 01:55:36;;;;;;;7.93;7.13;;;6.90;99.90;;;;;;4916292;29;20436;-83
2023/03/07 01:58:13;;;;;;;7.67;6.87;;;7.00;99.90;;;;;;4917112;29;20411;-82
2023/03/07 02:00:41;;;;;;;7.40;6.70;;;7.00;99.90;;;;;;4918312;29;20408;-83
2023/03/07 02:03:10;;;;;;;8.87;7.77;;;7.00;99.90;;;;;;4900154;29;20476;-83
2023/03/07 02:05:40;;;;;;;7.50;6.80;;;7.00;99.90;;;;;;4915880;29;20567;-84
2023/03/07 02:08:12;;;;;;;8.10;7.13;;;7.00;99.90;;;;;;4915102;29;20407;-83
2023/03/07 02:10:40;;;;;;;7.50;6.80;;;7.00;99.90;;;;;;4916413;29;20429;-83
2023/03/07 02:13:06;;;;;;;7.53;6.83;;;7.10;99.90;;;;;;4915387;29;20805;-83
2023/03/07 02:15:35;;;;;;;7.43;6.80;;;7.10;99.90;;;;;;4916149;29;20436;-86
2023/03/07 02:18:02;;;;;;;8.43;7.63;;;7.10;99.90;;;;;;4915982;29;20407;-84
2023/03/07 02:20:42;;;;;;;8.10;7.30;;;7.20;99.90;;;;;;4916374;29;20427;-84
2023/03/07 02:23:15;;;;;;;7.90;7.20;;;7.20;99.90;;;;;;4907617;29;20809;-84
2023/03/07 02:25:47;;;;;;;8.20;7.40;;;7.20;99.90;;;;;;4931080;29;20438;-84
2023/03/07 02:28:16;;;;;;;8.20;7.50;;;7.20;99.90;;;;;;4915960;29;20837;-84
2023/03/07 02:30:55;;;;;;;7.87;7.17;;;7.30;99.90;;;;;;4915540;29;20488;-84
2023/03/07 02:33:23;;;;;;;7.67;6.97;;;7.20;99.90;;;;;;4916786;29;20885;-84
2023/03/07 02:35:54;;;;;;;8.17;7.40;;;7.20;99.90;;;;;;4915505;29;20414;-84
2023/03/07 02:38:21;;;;;;;7.90;7.20;;;7.20;99.90;;;;;;4915911;29;20742;-84
2023/03/07 02:40:48;;;;;;;7.60;6.93;;;7.20;99.90;;;;;;4896951;29;20508;-84
2023/03/07 02:43:14;;;;;;;7.20;6.60;;;7.20;99.90;;;;;;4908934;29;20446;-84
2023/03/07 02:45:40;;;;;;;6.90;6.30;;;7.20;99.90;;;;;;4917652;29;20793;-84
2023/03/07 02:48:06;;;;;;;6.70;6.10;;;7.10;99.90;;;;;;4919969;29;20409;-84
2023/03/07 02:50:32;;;;;;;7.33;6.57;;;7.00;99.90;;;;;;4918084;29;20184;-84
2023/03/07 02:52:58;;;;;;;7.20;6.53;;;7.10;99.90;;;;;;4918568;29;20239;-84
2023/03/07 02:55:24;;;;;;;7.20;6.60;;;7.00;99.90;;;;;;4919634;29;20443;-84
2023/03/07 02:57:49;;;;;;;7.10;6.40;;;7.10;99.90;;;;;;4918400;29;20227;-84
2023/03/07 03:00:16;;;;;;;7.43;6.73;;;7.10;99.90;;;;;;4919190;29;20177;-83
2023/03/07 03:02:42;;;;;;;7.47;6.77;;;7.10;99.90;;;;;;4919714;29;20212;-84
2023/03/07 03:05:08;;;;;;;6.60;6.00;;;7.10;99.90;;;;;;4918224;29;20841;-84
2023/03/07 03:07:33;;;;;;;5.50;5.10;;;7.20;99.90;;;;;;4918942;29;20400;-84
2023/03/07 03:09:59;;;;;;;5.87;5.40;;;7.20;99.90;;;;;;4916279;29;20425;-87
2023/03/07 03:12:25;;;;;;;6.60;5.97;;;7.20;99.90;;;;;;4919290;29;20302;-83
2023/03/07 03:14:50;;;;;;;5.83;5.23;;;7.20;99.90;;;;;;4918700;29;20180;-84
2023/03/07 03:17:16;;;;;;;5.70;5.20;;;7.20;99.90;;;;;;4919162;29;20203;-84
2023/03/07 03:19:42;;;;;;;5.80;5.30;;;7.20;99.90;;;;;;4918081;29;20258;-84
2023/03/07 03:22:07;;;;;;;6.80;6.23;;;7.20;99.90;;;;;;4918805;29;20177;-83
2023/03/07 03:24:36;;;;;;;6.80;6.20;;;7.20;99.90;;;;;;4919604;29;20184;-83
2023/03/07 03:27:03;;;;;;;6.27;5.67;;;7.20;99.90;;;;;;4918372;29;20228;-83
2023/03/07 03:29:29;;;;;;;6.00;5.50;;;7.20;99.90;;;;;;4919281;29;20468;-84
2023/03/07 03:31:55;;;;;;;5.90;5.40;;;7.20;99.90;;;;;;4917173;29;20467;-83
2023/03/07 03:34:20;;;;;;;5.20;4.80;;;7.20;99.90;;;;;;4918401;29;20192;-84
2023/03/07 03:36:46;;;;;;;5.47;5.07;;;7.20;99.90;;;;;;4918074;29;20178;-84
2023/03/07 03:39:13;;;;;;;5.50;5.10;;;7.10;99.90;;;;;;4918334;29;20191;-83
2023/03/07 03:41:39;;;;;;;5.47;5.07;;;7.20;99.90;;;;;;4917710;29;20198;-86
2023/03/07 03:44:04;;;;;;;5.87;5.47;;;7.30;99.90;;;;;;4916930;29;20474;-83
2023/03/07 03:46:30;;;;;;;5.77;5.37;;;7.30;99.90;;;;;;4919364;29;20180;-83
2023/03/07 03:48:56;;;;;;;5.97;5.57;;;7.30;99.90;;;;;;4916441;29;20273;-83
2023/03/07 03:51:23;;;;;;;6.03;5.53;;;7.30;99.90;;;;;;4914682;29;20404;-84
2023/03/07 03:53:49;;;;;;;5.63;5.13;;;7.30;99.90;;;;;;4898026;29;20190;-84
2023/03/07 03:56:20;;;;;;;5.30;4.90;;;7.40;99.90;;;;;;4916930;29;20432;-84
2023/03/07 03:58:48;;;;;;;5.90;5.40;;;7.40;99.90;;;;;;4917092;29;20580;-84
2023/03/07 04:01:14;;;;;;;6.23;5.63;;;7.40;99.90;;;;;;4917181;29;20871;-85
2023/03/07 04:03:42;;;;;;;5.40;5.00;;;7.40;99.90;;;;;;4918627;29;20423;-88
2023/03/07 04:06:11;;;;;;;5.27;4.87;;;7.50;99.90;;;;;;4932834;29;20490;-84
2023/03/07 04:08:38;;;;;;;4.90;4.60;;;7.50;99.90;;;;;;4916809;29;20407;-84
2023/03/07 04:11:04;;;;;;;5.63;5.13;;;7.50;99.90;;;;;;4918268;29;20389;-84
2023/03/07 04:13:31;;;;;;;5.70;5.30;;;7.40;99.90;;;;;;4916362;29;20466;-84
2023/03/07 04:15:57;;;;;;;5.03;4.63;;;7.40;99.90;;;;;;4917515;29;20443;-84
2023/03/07 04:18:23;;;;;;;5.77;5.37;;;7.40;99.90;;;;;;4918551;29;20503;-84
2023/03/07 04:20:50;;;;;;;5.97;5.47;;;7.40;99.90;;;;;;4931409;29;20174;-84
2023/03/07 04:23:21;;;;;;;5.73;5.07;;;7.40;99.90;;;;;;4918044;29;20781;-84
2023/03/07 04:25:54;;;;;;;5.77;5.20;;;7.40;99.90;;;;;;4916919;29;20420;-84
2023/03/07 04:28:21;;;;;;;5.53;5.03;;;7.40;99.90;;;;;;4917417;29;20746;-84
2023/03/07 04:30:48;;;;;;;5.90;5.40;;;7.40;99.90;;;;;;4918113;29;20743;-83
2023/03/07 04:33:15;;;;;;;6.60;6.00;;;7.50;99.90;;;;;;4918123;29;20469;-84
2023/03/07 04:35:41;;;;;;;6.30;5.80;;;7.40;99.90;;;;;;4912052;29;20902;-84
2023/03/07 04:38:07;;;;;;;6.80;6.30;;;7.40;99.90;;;;;;4915699;29;20426;-84
2023/03/07 04:40:34;;;;;;;8.90;7.70;;;7.50;99.90;;;;;;4917132;29;20429;-84
2023/03/07 04:43:00;;;;;;;9.90;6.50;;;7.50;99.90;;;;;;4916911;29;20456;-84
2023/03/07 04:45:26;;;;;;;7.83;7.13;;;7.40;99.90;;;;;;4918399;29;20496;-83
2023/03/07 04:47:52;;;;;;;8.33;7.53;;;7.40;99.90;;;;;;4918271;29;20531;-84
2023/03/07 04:50:18;;;;;;;9.20;8.30;;;7.40;99.90;;;;;;4919001;29;20180;-83
2023/03/07 04:52:44;;;;;;;8.73;7.93;;;7.40;99.90;;;;;;4918117;29;20210;-83
2023/03/07 04:55:11;;;;;;;8.30;7.43;;;7.40;99.90;;;;;;4917470;29;20436;-83
2023/03/07 04:57:37;;;;;;;8.37;7.60;;;7.40;99.90;;;;;;4919402;29;20979;-83
2023/03/07 05:00:13;;;;;;;7.97;7.20;;;7.50;99.90;;;;;;4920092;29;20433;-87
2023/03/07 05:02:39;;;;;;;10.90;8.13;;;7.50;99.90;;;;;;4904532;29;20512;-83
2023/03/07 05:05:05;;;;;;;9.30;8.13;;;7.40;99.90;;;;;;4912211;29;20472;-84
2023/03/07 05:07:32;;;;;;;8.43;7.60;;;7.40;99.90;;;;;;4916094;29;20240;-85
2023/03/07 05:09:58;;;;;;;10.07;9.17;;;7.30;99.90;;;;;;4911081;29;20465;-84
2023/03/07 05:12:24;;;;;;;7.67;6.97;;;7.30;99.90;;;;;;4911085;29;20899;-84
2023/03/07 05:14:50;;;;;;;7.40;6.47;;;7.40;99.90;;;;;;4915968;29;20421;-85
2023/03/07 05:17:16;;;;;;;10.47;9.50;;;7.40;99.90;;;;;;4917317;29;20421;-85
2023/03/07 05:19:42;;;;;;;8.00;7.30;;;7.40;99.90;;;;;;4915828;29;20184;-85
2023/03/07 05:22:08;;;;;;;8.97;8.27;;;7.40;99.90;;;;;;4915322;29;20468;-85
2023/03/07 05:24:34;;;;;;;9.70;8.80;;;7.40;99.90;;;;;;4915007;29;20587;-85
2023/03/07 05:27:01;;;;;;;9.93;8.03;;;7.40;99.90;;;;;;4913927;29;20983;-85
2023/03/07 05:29:26;;;;;;;8.73;7.83;;;7.30;99.90;;;;;;4914768;29;20480;-85
2023/03/07 05:31:52;;;;;;;9.30;8.47;;;7.20;99.90;;;;;;4915801;29;20503;-85
2023/03/07 05:34:18;;;;;;;10.23;9.23;;;7.20;99.90;;;;;;4914639;29;20924;-85
2023/03/07 05:36:44;;;;;;;8.90;8.03;;;7.30;99.90;;;;;;4914334;29;20215;-85
2023/03/07 05:39:09;;;;;;;8.50;7.57;;;7.30;99.90;;;;;;4898803;29;20321;-85
2023/03/07 05:41:35;;;;;;;9.10;8.20;;;7.30;99.90;;;;;;4916617;29;20625;-84
2023/03/07 05:44:02;;;;;;;8.40;7.60;;;7.40;99.90;;;;;;4913263;29;20464;-86
2023/03/07 05:46:28;;;;;;;8.40;7.37;;;7.30;99.90;;;;;;4915379;29;20447;-85
2023/03/07 05:48:57;;;;;;;6.90;6.30;;;7.30;99.90;;;;;;4898718;29;20436;-85
2023/03/07 05:51:22;;;;;;;8.07;7.27;;;7.30;99.90;;;;;;4909083;29;20796;-85
2023/03/07 05:53:48;;;;;;;11.20;10.20;;;7.30;99.90;;;;;;4915589;29;20440;-87
2023/03/07 05:56:14;;;;;;;7.63;6.83;;;7.30;99.90;;;;;;4915495;29;20591;-86
2023/03/07 05:58:39;;;;;;;9.70;9.00;;;7.30;99.90;;;;;;4915544;29;20195;-85
2023/03/07 06:01:05;;;;;;;8.73;7.27;;;7.30;99.90;;;;;;4915131;29;20215;-85
2023/03/07 06:03:31;;;;;;;10.10;9.20;;;7.40;99.90;;;;;;4909929;29;20191;-85
2023/03/07 06:05:57;;;;;;;7.87;7.17;;;7.30;99.90;;;;;;4903501;29;20640;-85
2023/03/07 06:08:25;;;;;;;8.00;7.20;;;7.30;99.90;;;;;;4913427;29;20459;-86
2023/03/07 06:10:53;;;;;;;9.07;8.37;;;7.30;99.90;;;;;;4913573;29;20435;-87
2023/03/07 06:13:22;;;;;;;8.33;6.70;;;7.20;99.90;;;;;;4913903;29;20472;-85
2023/03/07 06:15:51;;;;;;;7.67;6.97;;;7.20;99.90;;;;;;4916124;29;20448;-87
2023/03/07 06:18:18;;;;;;;7.60;7.00;;;7.20;99.90;;;;;;4919026;29;20788;-85
2023/03/07 06:20:43;;;;;;;8.43;7.67;;;7.20;99.90;;;;;;4931623;29;20435;-82
2023/03/07 06:23:09;;;;;;;7.80;7.07;;;7.30;99.90;;;;;;4914621;29;20441;-86
2023/03/07 06:25:36;;;;;;;9.83;7.60;;;7.30;99.90;;;;;;4917909;29;20210;-86
2023/03/07 06:28:01;;;;;;;10.83;9.93;;;7.60;99.90;;;;;;4916765;29;20435;-86
2023/03/07 06:30:28;;;;;;;8.20;7.50;;;8.10;99.90;;;;;;4919291;29;20424;-86
2023/03/07 06:32:54;;;;;;;10.20;9.40;;;8.70;99.90;;;;;;4933496;29;20686;-87
2023/03/07 06:35:20;;;;;;;8.60;7.47;;;9.10;99.90;;;;;;4903141;29;20427;-86
2023/03/07 06:37:45;;;;;;;8.20;7.50;;;9.50;99.90;;;;;;4918340;29;20430;-86
2023/03/07 06:40:11;;;;;;;10.93;10.00;;;9.90;99.90;;;;;;4918986;29;20209;-87
2023/03/07 06:42:37;;;;;;;8.63;7.83;;;10.00;99.90;;;;;;4903054;29;20269;-86
2023/03/07 06:45:04;;;;;;;6.80;6.10;;;10.40;99.90;;;;;;4882570;29;20451;-87
2023/03/07 06:47:30;;;;;;;8.93;8.23;;;10.70;99.90;;;;;;4898981;29;20421;-87
2023/03/07 06:49:56;;;;;;;8.40;7.60;;;11.00;99.90;;;;;;4899126;29;20422;-87
2023/03/07 06:52:22;;;;;;;10.87;9.83;;;11.20;99.90;;;;;;4899311;29;20975;-87
2023/03/07 06:54:47;;;;;;;10.07;9.03;;;11.30;99.90;;;;;;4899767;29;20211;-87
2023/03/07 06:57:13;;;;;;;7.90;7.20;;;11.50;99.90;;;;;;4898158;29;20513;-87
2023/03/07 06:59:39;;;;;;;10.17;9.40;;;11.60;99.90;;;;;;4893652;29;20187;-87
2023/03/07 07:02:06;;;;;;;9.13;8.43;;;11.60;99.90;;;;;;4890499;29;20532;-87
2023/03/07 07:04:32;;;;;;;9.10;8.30;;;11.70;99.90;;;;;;4899901;29;20190;-87
2023/03/07 07:06:58;;;;;;;7.50;6.80;;;11.90;99.90;;;;;;4895303;29;20490;-87
2023/03/07 07:09:24;;;;;;;8.47;7.70;;;11.90;99.90;;;;;;4904170;29;20424;-86
2023/03/07 07:11:49;;;;;;;8.97;8.17;;;12.00;99.90;;;;;;4889101;29;20221;-85
2023/03/07 07:14:15;;;;;;;8.00;7.30;;;12.00;99.90;;;;;;4898091;29;20583;-86
2023/03/07 07:16:41;;;;;;;8.90;8.10;;;12.10;99.90;;;;;;4899886;29;20186;-85
2023/03/07 07:19:08;;;;;;;8.50;7.60;;;12.20;99.90;;;;;;4897718;29;20237;-86
2023/03/07 07:21:34;;;;;;;7.70;7.10;;;12.30;99.90;;;;;;4896255;29;20469;-86
2023/03/07 07:24:00;;;;;;;7.53;6.83;;;12.40;99.90;;;;;;4899425;29;20419;-86
2023/03/07 07:26:26;;;;;;;9.17;8.57;;;12.60;99.90;;;;;;4897089;29;20438;-83
2023/03/07 07:28:52;;;;;;;7.93;7.23;;;12.40;97.10;;;;;;4896952;29;20183;-86
2023/03/07 07:31:18;;;;;;;9.90;8.90;;;11.90;96.70;;;;;;4897507;29;20182;-85
2023/03/07 07:33:45;;;;;;;7.80;7.10;;;11.50;97.50;;;;;;4899879;29;20986;-85
2023/03/07 07:36:11;;;;;;;7.60;6.90;;;11.20;99.20;;;;;;4897499;29;20214;-86
2023/03/07 07:38:36;;;;;;;8.03;7.33;;;10.70;99.90;;;;;;4899078;29;20443;-86
2023/03/07 07:41:03;;;;;;;7.90;7.10;;;10.40;99.90;;;;;;4895852;29;20435;-85
2023/03/07 07:43:29;;;;;;;7.60;6.77;;;10.00;99.90;;;;;;4902200;29;20223;-83
2023/03/07 07:45:54;;;;;;;9.03;8.23;;;9.70;99.90;;;;;;4917719;29;20785;-84
2023/03/07 07:48:20;;;;;;;8.77;7.97;;;9.50;99.90;;;;;;4917385;29;20912;-82
2023/03/07 07:50:46;;;;;;;8.37;7.50;;;9.30;99.90;;;;;;4916728;29;20238;-82
2023/03/07 07:53:12;;;;;;;9.43;8.10;;;9.10;99.90;;;;;;4917347;29;20217;-83
2023/03/07 07:55:38;;;;;;;9.17;8.30;;;8.90;99.90;;;;;;4917708;29;20513;-83
2023/03/07 07:58:04;;;;;;;8.67;7.80;;;8.70;99.90;;;;;;4919207;29;20446;-84
2023/03/07 08:00:31;;;;;;;9.27;8.37;;;8.50;99.90;;;;;;4924254;29;20186;-85
2023/03/07 08:02:57;;;;;;;9.53;8.53;;;8.40;99.90;;;;;;4912347;29;20634;-86
2023/03/07 08:05:23;;;;;;;10.83;9.70;;;8.30;99.90;;;;;;4915217;29;20947;-82
2023/03/07 08:07:49;;;;;;;12.73;11.60;;;8.30;99.90;;;;;;4901457;29;20441;-83
2023/03/07 08:10:16;;;;;;;9.93;8.60;;;8.10;99.90;;;;;;4915522;29;20186;-83
2023/03/07 08:12:43;;;;;;;10.83;9.83;;;8.00;99.90;;;;;;4916866;29;20964;-82
2023/03/07 08:15:09;;;;;;;10.23;9.30;;;7.90;99.90;;;;;;4916268;29;20477;-84
2023/03/07 08:17:35;;;;;;;11.00;9.40;;;7.90;99.90;;;;;;4909908;29;20458;-84
2023/03/07 08:20:07;;;;;;;9.77;8.77;;;7.90;99.90;;;;;;4905731;29;20468;-84
2023/03/07 08:22:33;;;;;;;10.80;8.90;;;7.90;99.90;;;;;;4917017;29;20181;-84
2023/03/07 08:24:59;;;;;;;12.00;9.40;;;7.90;99.90;;;;;;4916344;29;20433;-86
2023/03/07 08:27:26;;;;;;;11.07;9.90;;;7.80;99.90;;;;;;4917211;29;20931;-84
2023/03/07 08:29:54;;;;;;;11.43;9.87;;;7.90;99.90;;;;;;4916401;29;20539;-83
2023/03/07 08:32:20;;;;;;;12.13;10.47;;;7.80;99.90;;;;;;4917805;29;20471;-83
2023/03/07 08:34:46;;;;;;;12.93;11.43;;;7.80;99.90;;;;;;4917570;29;20440;-83
2023/03/07 08:37:12;;;;;;;12.87;10.53;;;7.80;99.90;;;;;;4916857;29;20181;-83
2023/03/07 08:39:37;;;;;;;12.63;10.60;;;7.80;99.90;;;;;;4917818;29;20185;-83
2023/03/07 08:42:03;;;;;;;14.13;12.83;;;7.80;99.90;;;;;;4916785;29;20198;-83
2023/03/07 08:44:29;;;;;;;12.90;11.60;;;7.80;99.90;;;;;;4916083;29;20223;-83
2023/03/07 08:46:54;;;;;;;13.00;11.60;;;7.70;99.90;;;;;;4917698;29;20189;-83
2023/03/07 08:49:20;;;;;;;12.77;11.50;;;7.70;99.90;;;;;;4913884;29;20188;-83
2023/03/07 08:51:47;;;;;;;13.17;11.70;;;7.80;99.90;;;;;;4897507;29;20189;-83
2023/03/07 08:54:12;;;;;;;12.30;11.03;;;7.80;99.90;;;;;;4916112;29;20207;-84
2023/03/07 08:56:38;;;;;;;12.13;10.93;;;7.70;99.90;;;;;;4916856;29;20949;-83
2023/03/07 08:59:04;;;;;;;12.70;11.30;;;7.70;99.90;;;;;;4916260;29;20187;-83
2023/03/07 09:01:30;;;;;;;12.10;10.90;;;7.70;99.90;;;;;;4917104;29;20185;-83
2023/03/07 09:03:55;;;;;;;13.20;11.90;;;7.70;99.90;;;;;;4915763;29;20437;-83
2023/03/07 09:06:21;;;;;;;11.87;10.60;;;7.70;99.90;;;;;;4910874;29;20216;-84
2023/03/07 09:08:49;;;;;;;13.20;11.80;;;7.70;99.90;;;;;;4917557;29;20248;-83
2023/03/07 09:11:16;;;;;;;12.03;10.70;;;7.70;99.90;;;;;;4916976;29;20441;-83
2023/03/07 09:13:42;;;;;;;11.30;9.57;;;7.70;99.90;;;;;;4916001;29;20500;-84
2023/03/07 09:16:08;;;;;;;11.47;10.13;;;7.60;99.90;;;;;;4915333;29;20840;-86
2023/03/07 09:18:35;;;;;;;11.70;10.33;;;7.60;99.90;;;;;;4912549;29;20434;-83
2023/03/07 09:21:04;;;;;;;10.70;9.60;;;7.60;99.90;;;;;;4909692;29;20441;-88
2023/03/07 09:23:30;;;;;;;9.17;8.23;;;7.60;99.90;;;;;;4915031;29;20433;-83
2023/03/07 09:26:00;;;;;;;9.77;8.90;;;7.60;99.90;;;;;;4916389;29;20437;-83
2023/03/07 09:28:26;;;;;;;10.40;9.33;;;7.60;99.90;;;;;;4916025;29;20627;-84
2023/03/07 09:30:52;;;;;;;12.90;11.60;;;7.60;99.90;;;;;;4915875;29;20421;-83
2023/03/07 09:33:17;;;;;;;9.83;8.83;;;7.70;99.90;;;;;;4916156;29;20508;-83
2023/03/07 09:35:43;;;;;;;10.73;9.73;;;7.60;99.90;;;;;;4916587;29;20733;-84
2023/03/07 09:38:09;;;;;;;12.00;10.90;;;7.60;99.90;;;;;;4916367;29;20209;-84
2023/03/07 09:40:36;;;;;;;9.87;8.83;;;7.60;99.90;;;;;;4916401;29;20276;-83
2023/03/07 09:43:23;;;;;;;11.37;10.13;;;7.60;99.90;;;;;;4916654;29;20456;-84
2023/03/07 09:46:05;;;;;;;10.27;9.37;;;7.60;99.90;;;;;;4899589;29;20783;-83
2023/03/07 09:48:49;;;;;;;8.50;7.70;;;7.60;99.90;;;;;;4914213;29;20441;-84
2023/03/07 09:51:20;;;;;;;10.27;8.80;;;7.50;99.90;;;;;;4897064;29;20427;-83
2023/03/07 09:53:55;;;;;;;10.13;8.97;;;7.50;99.90;;;;;;4909233;29;20471;-83
2023/03/07 09:56:34;;;;;;;8.53;7.70;;;7.50;99.90;;;;;;4917025;29;20469;-83
2023/03/07 09:59:07;;;;;;;9.70;8.70;;;7.50;99.90;;;;;;4919470;29;20488;-82
2023/03/07 10:01:36;;;;;;;9.23;8.40;;;7.50;99.90;;;;;;4919107;29;20440;-83
2023/03/07 10:04:05;;;;;;;9.30;8.47;;;7.40;99.90;;;;;;4917942;29;20436;-83
2023/03/07 10:06:40;;;;;;;8.93;8.13;;;7.40;99.90;;;;;;4916504;29;20896;-83
2023/03/07 10:09:13;;;;;;;6.93;6.30;;;7.50;99.90;;;;;;4900484;29;20479;-83
2023/03/07 10:11:51;;;;;;;5.90;5.37;;;7.40;99.90;;;;;;4916892;29;20428;-83
2023/03/07 10:14:33;;;;;;;8.50;7.70;;;7.40;99.90;;;;;;4899046;29;20468;-83
2023/03/07 10:17:26;;;;;;;7.60;6.90;;;7.30;99.90;;;;;;4916287;29;20940;-83
2023/03/07 10:19:58;;;;;;;7.73;7.03;;;7.20;99.90;;;;;;4916146;29;20881;-84
2023/03/07 10:22:41;;;;;;;9.13;8.20;;;7.10;99.90;;;;;;4914936;29;20447;-84
2023/03/07 10:25:28;;;;;;;7.63;6.90;;;7.20;99.90;;;;;;4913365;29;20437;-85
2023/03/07 10:28:06;;;;;;;7.00;6.27;;;7.20;99.90;;;;;;4913744;29;20451;-84
2023/03/07 10:30:32;;;;;;;7.83;7.13;;;7.10;99.90;;;;;;4915355;29;20446;-86
2023/03/07 10:32:59;;;;;;;8.03;7.23;;;7.10;99.90;;;;;;4916748;29;20470;-84
2023/03/07 10:35:39;;;;;;;7.70;7.00;;;7.10;99.90;;;;;;4915215;29;20198;-84
2023/03/07 10:38:23;;;;;;;8.00;6.83;;;7.10;99.90;;;;;;4915212;29;20372;-85
2023/03/07 10:40:59;;;;;;;8.73;7.07;;;7.20;99.90;;;;;;4916272;29;20418;-84
2023/03/07 10:43:28;;;;;;;7.30;6.47;;;7.10;99.90;;;;;;4913590;29;20957;-84
2023/03/07 10:46:08;;;;;;;6.90;6.17;;;7.20;99.90;;;;;;4915553;29;20989;-84
2023/03/07 10:48:37;;;;;;;6.90;5.63;;;7.20;99.90;;;;;;4916359;29;20415;-84
2023/03/07 10:51:29;;;;;;;6.30;5.70;;;7.20;99.90;;;;;;4915656;29;20793;-84
2023/03/07 10:53:55;;;;;;;6.33;5.80;;;7.20;99.90;;;;;;4914130;29;20460;-84
2023/03/07 10:56:21;;;;;;;6.97;6.47;;;7.20;99.90;;;;;;4914823;29;20469;-84
2023/03/07 10:59:10;;;;;;;6.70;6.10;;;7.20;99.90;;;;;;4916646;29;20424;-84
2023/03/07 11:01:55;;;;;;;7.23;6.53;;;7.10;99.90;;;;;;4915453;29;20187;-85
2023/03/07 11:04:23;;;;;;;6.80;6.10;;;7.10;99.90;;;;;;4918722;29;20526;-84
2023/03/07 11:06:57;;;;;;;5.80;5.40;;;7.10;99.90;;;;;;4917645;29;20432;-84
2023/03/07 11:09:23;;;;;;;6.70;5.83;;;7.20;99.90;;;;;;4917216;29;20504;-84
2023/03/07 11:12:09;;;;;;;6.17;5.67;;;7.20;99.90;;;;;;4917699;29;20515;-86
2023/03/07 11:14:51;;;;;;;7.60;5.70;;;7.20;99.90;;;;;;4899290;29;20646;-84
2023/03/07 11:17:26;;;;;;;6.80;6.30;;;7.20;99.90;;;;;;4911315;29;20518;-84
2023/03/07 11:19:53;;;;;;;5.80;5.33;;;7.30;99.90;;;;;;4918852;29;20943;-86
2023/03/07 11:22:27;;;;;;;6.73;6.30;;;7.30;99.90;;;;;;4907355;29;20432;-84
2023/03/07 11:24:58;;;;;;;7.17;6.67;;;7.30;99.90;;;;;;4917451;29;20514;-84
2023/03/07 11:27:30;;;;;;;6.20;5.70;;;7.30;99.90;;;;;;4918319;29;20483;-83
2023/03/07 11:30:37;;;;;;;6.60;6.10;;;7.30;99.90;;;;;;4918568;29;20440;-84
2023/03/07 11:33:35;;;;;;;5.77;5.27;;;7.30;99.90;;;;;;4917904;29;20469;-84
2023/03/07 11:36:04;;;;;;;5.40;5.00;;;7.40;99.90;;;;;;4919013;29;20432;-84
2023/03/07 11:38:55;;;;;;;5.90;5.40;;;7.30;99.90;;;;;;4917142;29;20440;-84
2023/03/07 11:41:39;;;;;;;6.33;5.73;;;7.30;99.90;;;;;;4917918;29;20464;-84
2023/03/07 11:44:34;;;;;;;6.03;5.53;;;7.30;99.90;;;;;;4918773;29;20476;-84
2023/03/07 11:47:42;;;;;;;6.70;6.20;;;7.20;99.90;;;;;;4918990;29;20485;-84
2023/03/07 11:50:27;;;;;;;5.57;5.17;;;7.20;99.90;;;;;;4914014;29;20432;-89
2023/03/07 11:53:20;;;;;;;5.50;5.00;;;7.20;99.90;;;;;;4913390;29;20467;-84
2023/03/07 11:56:08;;;;;;;7.63;7.03;;;7.20;99.90;;;;;;4916590;29;20441;-84
2023/03/07 11:58:48;;;;;;;6.30;5.80;;;7.20;99.90;;;;;;4918208;29;20440;-83
2023/03/07 12:01:33;;;;;;;5.00;4.60;;;7.20;99.90;;;;;;4918092;29;20438;-84
2023/03/07 12:04:10;;;;;;;4.67;4.33;;;7.20;99.90;;;;;;4916451;29;20448;-83
2023/03/07 12:06:57;;;;;;;4.67;4.37;;;7.20;99.90;;;;;;4916689;29;20445;-84
2023/03/07 12:10:13;;;;;;;5.07;4.77;;;7.20;99.90;;;;;;4916989;29;20428;-83
2023/03/07 12:13:03;;;;;;;6.13;5.57;;;7.20;99.90;;;;;;4893494;29;20589;-86
2023/03/07 12:15:35;;;;;;;5.33;4.93;;;7.20;99.90;;;;;;4916482;29;20450;-84
2023/03/07 12:18:25;;;;;;;5.83;5.33;;;7.10;99.90;;;;;;4916495;29;20932;-84
2023/03/07 12:21:03;;;;;;;5.10;4.80;;;7.10;99.90;;;;;;4917931;29;20415;-84
2023/03/07 12:23:38;;;;;;;4.70;4.33;;;7.10;99.90;;;;;;4918299;29;20754;-83
2023/03/07 12:26:21;;;;;;;4.93;4.63;;;7.10;99.90;;;;;;4919567;29;20415;-84
2023/03/07 12:28:49;;;;;;;4.73;4.43;;;7.10;99.90;;;;;;4919542;29;20421;-84
2023/03/07 12:31:25;;;;;;;4.90;4.50;;;7.10;99.90;;;;;;4917517;29;20431;-84
2023/03/07 12:34:18;;;;;;;5.43;4.93;;;7.10;99.90;;;;;;4925574;29;20541;-84
2023/03/07 12:36:53;;;;;;;5.10;4.70;;;7.20;99.90;;;;;;4920987;29;20458;-84
2023/03/07 12:39:19;;;;;;;5.10;4.70;;;7.20;99.90;;;;;;4919771;29;20486;-82
2023/03/07 12:42:13;;;;;;;5.00;4.60;;;7.20;99.90;;;;;;4919627;29;20976;-83
2023/03/07 12:44:50;;;;;;;4.80;4.50;;;7.20;99.90;;;;;;4922119;29;20236;-83
2023/03/07 12:47:19;;;;;;;4.90;4.50;;;7.20;99.90;;;;;;4917039;29;20427;-83
2023/03/07 12:50:11;;;;;;;5.13;4.73;;;7.20;99.90;;;;;;4918371;29;20908;-83
2023/03/07 12:52:51;;;;;;;5.00;4.60;;;7.20;99.90;;;;;;4921173;29;20896;-84
2023/03/07 12:55:39;;;;;;;5.07;4.33;;;7.10;99.90;;;;;;4917353;29;20447;-84
2023/03/07 12:58:16;;;;;;;4.67;4.27;;;7.10;99.90;;;;;;4919085;29;20905;-84
2023/03/07 13:01:12;;;;;;;5.93;3.70;;;7.10;99.90;;;;;;4920801;29;20432;-83
2023/03/07 13:03:52;;;;;;;4.47;4.17;;;7.10;99.90;;;;;;4919355;29;20458;-84
2023/03/07 13:06:21;;;;;;;4.80;4.40;;;7.10;99.90;;;;;;4918656;29;20461;-84